Time;durP1;ratioP1;P1;durP2;ratioP2;P2;SDS_P1;SDS_P2;PMS_P1;PMS_P2;Temp;Humidity;BMP_temperature;BMP_pressure;BME280_temperature;BME280_humidity;BME280_pressure;Samples;Min_cycle;Max_cycle;Signal;HPM_P1;HPM_P2
2022/04/17 00:00:00;;;;;;;36.53;23.23;;;;;;;5.08;61.08;103265.47;2078691;28;44104;-70
2022/04/17 00:01:07;;;;;;;34.72;22.30;;;;;;;5.08;61.30;103265.47;2079265;28;44496;-70
2022/04/17 00:02:09;;;;;;;30.00;20.23;;;;;;;5.03;60.90;103269.72;2079278;28;43364;-70
2022/04/17 00:03:14;;;;;;;31.77;21.88;;;;;;;5.04;61.59;103259.97;2079405;28;44101;-70
2022/04/17 00:04:16;;;;;;;32.30;21.10;;;;;;;4.99;61.99;103262.47;2079948;28;33637;-70
2022/04/17 00:05:18;;;;;;;32.80;22.23;;;;;;;5.07;61.27;103260.09;2079168;28;44242;-70
2022/04/17 00:06:19;;;;;;;29.95;21.98;;;;;;;5.03;60.25;103258.19;2079579;28;39058;-70
2022/04/17 00:07:21;;;;;;;37.85;22.02;;;;;;;5.03;60.41;103266.16;2079655;28;32070;-70
2022/04/17 00:08:23;;;;;;;33.00;22.65;;;;;;;5.03;60.34;103260.84;2079536;28;43317;-71
2022/04/17 00:09:25;;;;;;;34.05;21.23;;;;;;;5.00;60.96;103264.28;2080424;28;20042;-70
2022/04/17 00:10:27;;;;;;;31.48;21.05;;;;;;;5.02;60.47;103262.56;2079392;28;41788;-70
2022/04/17 00:11:28;;;;;;;31.15;21.75;;;;;;;4.96;61.04;103263.25;2079271;28;46386;-70
2022/04/17 00:12:30;;;;;;;33.80;21.08;;;;;;;4.97;61.02;103259.75;2078698;28;44894;-70
2022/04/17 00:13:34;;;;;;;31.50;21.65;;;;;;;4.96;61.60;103260.59;2078699;28;45670;-70
2022/04/17 00:14:36;;;;;;;33.60;21.52;;;;;;;4.96;60.43;103263.25;2079803;28;34371;-70
2022/04/17 00:15:38;;;;;;;33.35;23.08;;;;;;;4.91;61.32;103263.94;2079429;28;42395;-70
2022/04/17 00:16:40;;;;;;;38.67;22.70;;;;;;;4.92;61.31;103269.31;2080418;28;20192;-70
2022/04/17 00:17:42;;;;;;;33.72;20.95;;;;;;;4.83;60.53;103261.00;2079430;28;36736;-70
2022/04/17 00:18:46;;;;;;;32.67;20.65;;;;;;;4.81;61.11;103262.69;2078630;28;43330;-70
2022/04/17 00:19:49;;;;;;;34.72;23.33;;;;;;;4.80;61.00;103265.28;2079940;28;20044;-70
2022/04/17 00:20:50;;;;;;;37.90;22.85;;;;;;;4.80;62.27;103258.22;2079514;28;42270;-71
2022/04/17 00:21:52;;;;;;;33.60;21.80;;;;;;;4.79;62.12;103261.69;2078645;28;43113;-71
2022/04/17 00:22:54;;;;;;;31.55;21.70;;;;;;;4.77;61.76;103256.34;2080516;28;20042;-72
2022/04/17 00:23:58;;;;;;;35.13;23.27;;;;;;;4.76;62.33;103256.28;2079050;28;38493;-70
2022/04/17 00:25:01;;;;;;;32.33;21.27;;;;;;;4.75;60.88;103263.31;2079048;28;35559;-71
2022/04/17 00:26:03;;;;;;;32.75;22.02;;;;;;;4.70;61.30;103264.94;2080281;28;20127;-71
2022/04/17 00:27:05;;;;;;;31.77;20.95;;;;;;;4.65;61.13;103262.91;2079010;28;45289;-72
2022/04/17 00:28:08;;;;;;;36.53;23.17;;;;;;;4.70;60.88;103259.63;2079320;28;20037;-71
2022/04/17 00:29:10;;;;;;;30.48;21.63;;;;;;;4.69;60.51;103260.44;2078824;28;34174;-71
2022/04/17 00:30:12;;;;;;;30.40;21.08;;;;;;;4.61;61.33;103267.19;2079139;28;44889;-71
2022/04/17 00:31:16;;;;;;;35.00;23.25;;;;;;;4.86;60.64;103255.78;2079437;28;42566;-71
2022/04/17 00:32:20;;;;;;;34.92;21.55;;;;;;;4.76;60.77;103253.66;2079579;28;20113;-71
2022/04/17 00:33:22;;;;;;;32.20;21.80;;;;;;;4.76;60.59;103259.84;2078473;28;45662;-71
2022/04/17 00:34:29;;;;;;;31.90;21.35;;;;;;;4.79;60.21;103256.38;2078848;28;45033;-71
2022/04/17 00:35:31;;;;;;;35.50;22.10;;;;;;;4.78;60.49;103251.94;2079526;28;30675;-71
2022/04/17 00:36:34;;;;;;;33.30;21.80;;;;;;;4.78;61.36;103247.53;2079519;28;42215;-71
2022/04/17 00:37:36;;;;;;;34.38;21.77;;;;;;;4.77;61.17;103253.72;2079468;28;44089;-72
2022/04/17 00:38:38;;;;;;;31.48;21.33;;;;;;;4.77;61.23;103248.41;2078854;28;45450;-72
2022/04/17 00:39:43;;;;;;;32.90;21.55;;;;;;;4.74;60.40;103250.03;2078773;28;35639;-72
2022/04/17 00:40:44;;;;;;;33.90;22.05;;;;;;;4.71;60.87;103245.50;2078869;28;42138;-71
2022/04/17 00:41:49;;;;;;;32.40;21.05;;;;;;;4.69;60.95;103246.28;2079516;28;44631;-71
2022/04/17 00:42:50;;;;;;;36.58;22.10;;;;;;;4.81;61.11;103248.50;2079226;28;43885;-71
2022/04/17 00:43:52;;;;;;;30.40;20.55;;;;;;;4.70;60.95;103248.06;2078857;28;44013;-71
2022/04/17 00:44:54;;;;;;;32.63;21.63;;;;;;;4.78;60.68;103251.94;2078806;28;43916;-71
2022/04/17 00:46:00;;;;;;;32.97;21.63;;;;;;;4.65;61.16;103247.00;2078929;28;44413;-71
2022/04/17 00:47:03;;;;;;;33.60;21.00;;;;;;;4.64;60.71;103254.06;2078751;28;46039;-71
2022/04/17 00:48:05;;;;;;;32.35;21.23;;;;;;;4.65;60.58;103257.59;2079069;28;44104;-71
2022/04/17 00:49:07;;;;;;;33.15;21.35;;;;;;;4.64;61.60;103255.81;2078785;28;46694;-71
2022/04/17 00:50:09;;;;;;;30.17;20.15;;;;;;;4.59;61.90;103251.25;2078991;28;42414;-70
2022/04/17 00:51:13;;;;;;;32.70;20.77;;;;;;;4.58;61.09;103249.41;2078208;28;44532;-70
2022/04/17 00:52:16;;;;;;;31.13;20.48;;;;;;;4.55;61.21;103241.34;2078586;28;45603;-71
2022/04/17 00:53:23;;;;;;;30.38;21.25;;;;;;;4.56;61.79;103244.91;2079153;28;44108;-70
2022/04/17 00:54:29;;;;;;;30.98;21.00;;;;;;;4.55;61.79;103243.09;2078658;28;46720;-70
2022/04/17 00:55:31;;;;;;;34.85;21.40;;;;;;;4.58;62.14;103241.47;2078614;28;44042;-70
2022/04/17 00:56:38;;;;;;;33.15;21.77;;;;;;;4.55;61.67;103243.09;2078258;28;43280;-71
2022/04/17 00:57:41;;;;;;;33.55;21.38;;;;;;;4.56;61.92;103229.00;2078736;28;45840;-70
2022/04/17 00:58:44;;;;;;;30.02;20.77;;;;;;;4.58;61.35;103232.59;2079401;28;44137;-72
2022/04/17 00:59:50;;;;;;;32.42;21.27;;;;;;;4.57;61.73;103234.34;2078622;28;45428;-70
2022/04/17 01:00:52;;;;;;;30.80;20.27;;;;;;;4.54;62.22;103234.25;2078090;28;44955;-71
2022/04/17 01:01:53;;;;;;;30.75;20.75;;;;;;;4.54;61.43;103236.88;2078247;28;43931;-71
2022/04/17 01:02:55;;;;;;;32.97;21.17;;;;;;;4.54;61.06;103236.88;2079103;28;46800;-70
2022/04/17 01:03:57;;;;;;;33.55;20.10;;;;;;;4.57;61.58;103231.69;2078471;28;43769;-70
2022/04/17 01:04:59;;;;;;;31.45;20.85;;;;;;;4.58;62.17;103235.25;2078411;28;44071;-72
2022/04/17 01:06:01;;;;;;;30.63;20.42;;;;;;;4.62;61.89;103228.31;2078366;28;44237;-71
2022/04/17 01:07:07;;;;;;;30.17;20.30;;;;;;;4.54;61.89;103234.25;2078291;28;45098;-71
2022/04/17 01:08:12;;;;;;;30.48;18.73;;;;;;;4.59;61.22;103237.06;2078426;28;46474;-70
2022/04/17 01:09:16;;;;;;;31.65;19.15;;;;;;;4.51;62.04;103234.09;2080839;28;21047;-71
2022/04/17 01:10:22;;;;;;;32.75;20.65;;;;;;;4.51;61.92;103236.75;2079540;28;20989;-71
2022/04/17 01:11:24;;;;;;;32.15;19.98;;;;;;;4.53;61.63;103245.69;2079517;28;20034;-71
2022/04/17 01:12:26;;;;;;;33.70;20.20;;;;;;;4.54;61.93;103236.88;2078286;28;44213;-71
2022/04/17 01:13:27;;;;;;;30.67;20.05;;;;;;;4.58;61.67;103232.59;2078434;28;45132;-71
2022/04/17 01:14:30;;;;;;;29.83;19.13;;;;;;;4.53;62.25;103228.88;2078278;28;42594;-70
2022/04/17 01:15:32;;;;;;;27.17;18.48;;;;;;;4.48;61.80;103231.31;2078254;28;43382;-70
2022/04/17 01:16:36;;;;;;;31.60;18.10;;;;;;;4.47;62.27;103234.84;2070319;28;44534;-71
2022/04/17 01:17:38;;;;;;;29.30;18.92;;;;;;;4.49;62.11;103233.16;2069741;28;43754;-70
2022/04/17 01:19:02;;;;;;;28.40;18.65;;;;;;;4.52;61.97;103235.00;2062795;28;46756;-72
2022/04/17 01:20:04;;;;;;;27.55;18.38;;;;;;;4.49;61.96;103226.94;2073451;28;43804;-71
2022/04/17 01:21:08;;;;;;;28.35;19.05;;;;;;;4.52;62.19;103235.00;2072067;28;45820;-71
2022/04/17 01:22:11;;;;;;;27.23;19.17;;;;;;;4.46;62.32;103227.72;2078241;28;34401;-72
2022/04/17 01:27:15;;;;;;;25.83;17.58;;;;;;;4.34;62.86;103235.19;2078723;28;45845;-72
2022/04/17 01:28:16;;;;;;;28.30;17.67;;;;;;;4.30;63.41;103230.59;2078613;28;45149;-71
2022/04/17 01:29:18;;;;;;;26.98;17.38;;;;;;;4.29;63.26;103228.78;2077702;28;41197;-71
2022/04/17 01:30:20;;;;;;;25.20;17.05;;;;;;;4.29;62.88;103229.72;2078246;28;44573;-71
2022/04/17 01:31:27;;;;;;;27.55;18.23;;;;;;;4.24;63.64;103228.63;2078331;28;44982;-71
2022/04/17 01:32:29;;;;;;;25.95;17.35;;;;;;;4.25;63.10;103221.56;2078062;28;44160;-70
2022/04/17 01:33:30;;;;;;;33.17;19.02;;;;;;;4.28;63.09;103230.53;2078715;28;46198;-71
2022/04/17 01:34:33;;;;;;;28.13;17.20;;;;;;;4.25;63.08;103221.56;2078861;28;43400;-71
2022/04/17 01:35:35;;;;;;;29.98;17.50;;;;;;;4.27;63.65;103217.22;2075607;28;44245;-71
2022/04/17 01:36:36;;;;;;;26.58;17.17;;;;;;;4.23;63.70;103212.66;2094652;28;44642;-71
2022/04/17 01:37:38;;;;;;;27.42;17.30;;;;;;;4.19;63.26;103216.91;2094316;28;44388;-71
2022/04/17 01:38:40;;;;;;;29.35;17.25;;;;;;;4.22;63.13;103222.34;2086370;28;44768;-71
2022/04/17 01:39:41;;;;;;;24.35;17.08;;;;;;;4.23;63.43;103217.94;2087064;28;43681;-71
2022/04/17 01:40:43;;;;;;;27.08;16.90;;;;;;;4.21;63.43;103217.88;2085983;28;45783;-72
2022/04/17 01:41:48;;;;;;;25.63;16.85;;;;;;;4.15;63.98;103221.19;2085960;28;45827;-70
2022/04/17 01:42:50;;;;;;;26.63;16.73;;;;;;;4.16;63.89;103211.47;2078951;28;44112;-71
2022/04/17 01:43:52;;;;;;;27.65;16.50;;;;;;;4.14;63.47;103213.19;2086024;28;46108;-71
2022/04/17 01:44:53;;;;;;;27.17;16.05;;;;;;;4.09;63.60;103213.00;2088781;28;20045;-71
2022/04/17 01:45:55;;;;;;;24.40;15.68;;;;;;;4.11;63.75;103218.34;2094488;28;43758;-71
2022/04/17 01:46:59;;;;;;;27.27;17.30;;;;;;;4.07;63.45;103212.00;2095548;28;45135;-70
2022/04/17 01:48:01;;;;;;;23.17;15.10;;;;;;;4.01;63.46;103217.97;2095389;28;44443;-70
2022/04/17 01:49:04;;;;;;;28.30;17.20;;;;;;;3.99;64.92;103211.72;2088643;28;44765;-71
2022/04/17 01:50:06;;;;;;;28.73;17.58;;;;;;;3.97;64.60;103215.16;2095937;28;46023;-71
2022/04/17 01:51:07;;;;;;;25.73;16.40;;;;;;;4.10;64.17;103213.91;2095252;28;44147;-71
2022/04/17 01:52:09;;;;;;;26.55;15.68;;;;;;;4.01;64.26;103217.97;2088194;28;44821;-70
2022/04/17 01:53:11;;;;;;;23.63;15.88;;;;;;;3.95;64.10;103223.03;2088053;28;33978;-72
2022/04/17 01:54:21;;;;;;;23.98;15.73;;;;;;;3.96;64.10;103216.88;2087117;28;43519;-72
2022/04/17 01:55:24;;;;;;;22.80;14.43;;;;;;;3.90;63.69;103219.28;2088658;28;20037;-71
2022/04/17 01:56:25;;;;;;;23.88;16.23;;;;;;;3.95;64.12;103220.38;2088397;28;44103;-72
2022/04/17 01:57:27;;;;;;;24.90;16.50;;;;;;;3.89;64.19;103221.88;2088226;28;44800;-71
2022/04/17 01:58:29;;;;;;;24.88;16.00;;;;;;;4.00;64.69;103202.00;2088546;28;43936;-72
2022/04/17 01:59:30;;;;;;;24.95;15.85;;;;;;;3.96;64.05;103218.63;2088293;28;44264;-71
2022/04/17 02:00:32;;;;;;;25.50;15.80;;;;;;;4.01;64.73;103206.47;2095468;28;44425;-70
2022/04/17 02:01:36;;;;;;;22.85;14.98;;;;;;;3.98;64.61;103217.88;2095665;28;44125;-71
2022/04/17 02:02:38;;;;;;;26.10;15.48;;;;;;;3.91;64.09;103212.22;2095687;28;44166;-70
2022/04/17 02:03:40;;;;;;;23.35;15.98;;;;;;;3.85;64.35;103217.28;2087773;28;42480;-71
2022/04/17 02:04:41;;;;;;;26.58;15.05;;;;;;;3.85;64.93;103212.88;2079113;28;45215;-70
2022/04/17 02:05:43;;;;;;;25.13;15.80;;;;;;;3.85;64.93;103207.59;2077446;28;44653;-71
2022/04/17 02:06:46;;;;;;;26.35;15.43;;;;;;;3.86;64.89;103214.72;2071780;28;44837;-70
2022/04/17 02:07:48;;;;;;;26.95;15.48;;;;;;;3.86;64.96;103205.84;2071403;28;45603;-72
2022/04/17 02:08:51;;;;;;;23.60;14.40;;;;;;;3.83;64.86;103202.22;2071834;28;45697;-72
2022/04/17 02:09:53;;;;;;;25.58;16.15;;;;;;;3.88;64.67;103210.38;2072579;28;20381;-71
2022/04/17 02:10:56;;;;;;;24.48;14.25;;;;;;;3.82;64.69;103205.72;2072015;28;46495;-70
2022/04/17 02:11:58;;;;;;;24.55;15.52;;;;;;;3.82;64.85;103203.09;2071527;28;43654;-73
2022/04/17 02:13:00;;;;;;;24.65;14.98;;;;;;;3.76;65.02;103200.16;2078803;28;44323;-70
2022/04/17 02:14:03;;;;;;;21.17;13.65;;;;;;;3.69;64.98;103206.03;2078943;28;44896;-70
2022/04/17 02:15:05;;;;;;;25.98;16.13;;;;;;;3.68;65.48;103201.59;2070565;28;42886;-70
2022/04/17 02:16:07;;;;;;;26.77;16.13;;;;;;;3.75;65.08;103201.00;2070484;28;42404;-71
2022/04/17 02:17:10;;;;;;;23.92;15.75;;;;;;;3.73;65.51;103199.13;2071989;28;42115;-71
2022/04/17 02:18:13;;;;;;;27.05;16.00;;;;;;;3.72;65.68;103198.22;2072208;28;45320;-71
2022/04/17 02:19:15;;;;;;;24.25;15.15;;;;;;;3.74;65.61;103198.31;2071968;28;45732;-71
2022/04/17 02:20:16;;;;;;;26.80;15.13;;;;;;;3.77;64.91;103201.97;2071924;28;42205;-71
2022/04/17 02:21:19;;;;;;;25.00;14.38;;;;;;;3.75;64.92;103201.00;2071073;28;46207;-71
2022/04/17 02:22:21;;;;;;;23.50;15.27;;;;;;;3.69;64.91;103200.75;2071765;28;36091;-71
2022/04/17 02:23:22;;;;;;;24.73;14.45;;;;;;;3.66;64.74;103198.00;2071418;28;43520;-72
2022/04/17 02:24:26;;;;;;;22.85;15.15;;;;;;;3.66;65.40;103197.06;2072646;28;20035;-71
2022/04/17 02:25:27;;;;;;;27.77;15.35;;;;;;;3.67;65.27;103196.22;2071231;28;43777;-71
2022/04/17 02:26:30;;;;;;;25.40;15.10;;;;;;;3.56;65.68;103194.03;2071352;28;41083;-71
2022/04/17 02:27:32;;;;;;;25.02;14.05;;;;;;;3.66;65.32;103190.03;2070917;28;42200;-70
2022/04/17 02:28:35;;;;;;;22.65;14.52;;;;;;;3.62;65.56;103196.03;2071344;28;38799;-71
2022/04/17 02:29:38;;;;;;;25.23;14.82;;;;;;;3.71;65.33;103191.09;2072195;28;20042;-71
2022/04/17 02:30:39;;;;;;;22.08;14.15;;;;;;;3.72;64.81;103192.94;2072394;28;35839;-71
2022/04/17 02:31:41;;;;;;;24.38;14.98;;;;;;;3.82;65.27;103195.13;2071769;28;31332;-71
2022/04/17 02:32:43;;;;;;;22.92;14.07;;;;;;;3.73;65.14;103192.09;2071406;28;45514;-71
2022/04/17 02:33:44;;;;;;;22.25;14.10;;;;;;;3.67;64.80;103190.94;2071419;28;44236;-71
2022/04/17 02:34:48;;;;;;;25.55;14.38;;;;;;;3.60;65.12;103190.66;2072079;28;20041;-71
2022/04/17 02:35:50;;;;;;;25.20;14.88;;;;;;;3.64;65.52;103191.69;2063659;28;42090;-71
2022/04/17 02:36:53;;;;;;;22.77;14.38;;;;;;;3.55;65.53;103186.00;2071647;28;44616;-72
2022/04/17 02:37:55;;;;;;;21.13;14.02;;;;;;;3.56;65.84;103191.38;2070940;28;45178;-71
2022/04/17 02:38:56;;;;;;;22.45;12.75;;;;;;;3.51;65.98;103192.03;2063315;28;42985;-69
2022/04/17 02:39:58;;;;;;;20.30;13.63;;;;;;;3.49;65.90;103196.34;2079825;28;20046;-71
2022/04/17 02:41:03;;;;;;;21.92;13.43;;;;;;;3.43;65.83;103194.34;2080067;28;43611;-69
2022/04/17 02:42:04;;;;;;;19.38;12.68;;;;;;;3.36;65.90;103195.81;2079110;28;44429;-71
2022/04/17 02:43:08;;;;;;;23.88;13.68;;;;;;;3.33;66.62;103189.50;2079354;28;46106;-70
2022/04/17 02:44:10;;;;;;;23.52;13.43;;;;;;;3.31;66.79;103193.81;2079385;28;43141;-71
2022/04/17 02:45:11;;;;;;;22.63;13.70;;;;;;;3.28;66.30;103197.22;2080087;28;35404;-71
2022/04/17 02:47:42;;;;;;;21.88;13.32;;;;;;;3.25;67.05;103184.78;2078881;28;42602;-70
2022/04/17 02:47:44;;;;;;;25.58;13.60;;;;;;;3.29;66.63;103191.09;2079479;28;44087;-71
2022/04/17 02:48:46;;;;;;;23.92;14.05;;;;;;;3.25;66.79;103190.06;2079404;28;44364;-70
2022/04/17 02:49:49;;;;;;;22.77;14.35;;;;;;;3.23;66.36;103190.81;2080928;28;20141;-71
2022/04/17 02:50:51;;;;;;;22.90;14.32;;;;;;;3.22;67.16;103189.03;2079193;28;46622;-71
2022/04/17 02:51:53;;;;;;;22.27;13.48;;;;;;;3.18;66.92;103187.09;2079947;28;42143;-72
2022/04/17 02:52:58;;;;;;;23.17;14.30;;;;;;;3.15;67.09;103184.31;2080271;28;37767;-71
2022/04/17 02:54:00;;;;;;;25.00;14.18;;;;;;;3.11;67.27;103191.22;2079969;28;45913;-70
2022/04/17 02:55:03;;;;;;;23.15;14.20;;;;;;;3.17;68.17;103182.63;2079942;28;41164;-71
2022/04/17 02:56:04;;;;;;;19.50;13.55;;;;;;;3.08;67.30;103185.78;2079882;28;45483;-71
2022/04/17 02:57:06;;;;;;;22.20;14.32;;;;;;;3.12;68.17;103189.44;2079544;28;45827;-72
2022/04/17 02:58:10;;;;;;;24.63;14.02;;;;;;;3.11;68.38;103190.31;2079533;28;44502;-71
2022/04/17 02:59:12;;;;;;;22.65;13.77;;;;;;;3.06;68.39;103190.09;2079332;28;44661;-71
2022/04/17 03:00:14;;;;;;;22.35;13.43;;;;;;;3.06;68.20;103183.03;2078950;28;43905;-71
2022/04/17 03:05:36;;;;;;;19.50;12.95;;;;;;;3.19;67.44;103196.81;2079611;28;33883;-71
2022/04/17 03:06:37;;;;;;;22.70;13.65;;;;;;;3.27;66.97;103190.13;2078824;28;42188;-71
2022/04/17 03:07:39;;;;;;;21.15;13.10;;;;;;;3.27;67.26;103190.13;2078656;28;44958;-71
2022/04/17 03:08:42;;;;;;;22.73;13.82;;;;;;;3.22;67.06;103183.75;2080976;28;20286;-71
2022/04/17 03:09:46;;;;;;;21.95;13.52;;;;;;;3.25;67.61;103183.88;2079708;28;20038;-71
2022/04/17 03:10:48;;;;;;;23.40;14.32;;;;;;;3.25;67.22;103179.47;2070975;28;44812;-71
2022/04/17 03:11:49;;;;;;;19.98;14.00;;;;;;;3.18;67.55;103187.09;2078149;28;42376;-72
2022/04/17 03:12:52;;;;;;;22.13;13.73;;;;;;;3.21;68.20;103181.91;2079218;28;43293;-71
2022/04/17 03:13:53;;;;;;;20.55;13.70;;;;;;;3.22;67.50;103181.09;2079077;28;38804;-71
2022/04/17 03:14:55;;;;;;;23.80;14.40;;;;;;;3.23;67.60;103183.81;2079024;28;42964;-71
2022/04/17 03:15:57;;;;;;;26.58;14.07;;;;;;;3.28;68.09;103178.69;2079323;28;43960;-71
2022/04/17 03:16:58;;;;;;;23.92;14.00;;;;;;;3.26;67.37;103180.38;2078803;28;45892;-71
2022/04/17 03:18:02;;;;;;;23.27;13.05;;;;;;;3.26;67.35;103169.78;2078345;28;44562;-71
2022/04/17 03:19:07;;;;;;;22.17;13.82;;;;;;;3.22;68.07;103179.34;2079517;28;43846;-71
2022/04/17 03:20:09;;;;;;;23.65;13.40;;;;;;;3.20;67.91;103180.13;2079611;28;42046;-71
2022/04/17 03:21:11;;;;;;;21.17;13.40;;;;;;;3.18;67.46;103176.50;2070117;28;45473;-72
2022/04/17 03:22:16;;;;;;;21.38;13.10;;;;;;;3.16;67.94;103179.09;2071101;28;34852;-71
2022/04/17 03:23:18;;;;;;;20.75;12.60;;;;;;;3.08;67.20;103172.53;2079704;28;44944;-71
2022/04/17 03:24:19;;;;;;;20.10;13.38;;;;;;;3.05;67.81;103168.03;2079583;28;44818;-71
2022/04/17 03:25:21;;;;;;;20.42;13.02;;;;;;;3.03;68.71;103167.06;2079590;28;42870;-71
2022/04/17 03:26:27;;;;;;;22.17;13.35;;;;;;;3.02;68.45;103173.19;2080029;28;20033;-73
2022/04/17 03:27:29;;;;;;;23.60;13.65;;;;;;;3.00;68.13;103168.66;2079700;28;29194;-71
2022/04/17 03:28:31;;;;;;;28.48;14.35;;;;;;;3.00;68.54;103174.84;2079251;28;43879;-72
2022/04/17 03:29:32;;;;;;;19.88;12.57;;;;;;;3.00;68.69;103171.31;2079433;28;46219;-72
2022/04/17 03:30:34;;;;;;;21.40;13.45;;;;;;;2.95;68.70;103171.09;2079644;28;26578;-73
2022/04/17 03:31:36;;;;;;;23.73;13.32;;;;;;;2.94;68.23;103171.03;2079323;28;45561;-71
2022/04/17 03:32:38;;;;;;;21.05;12.73;;;;;;;2.89;68.07;103173.47;2078971;28;45824;-72
2022/04/17 03:33:40;;;;;;;24.55;13.82;;;;;;;2.89;68.94;103160.25;2079862;28;36414;-72
2022/04/17 03:34:44;;;;;;;20.80;13.80;;;;;;;2.82;68.93;103156.41;2079164;28;46220;-72
2022/04/17 03:35:48;;;;;;;21.73;13.63;;;;;;;2.99;69.36;103170.38;2079682;28;20199;-72
2022/04/17 03:36:49;;;;;;;23.77;13.68;;;;;;;2.88;69.29;103161.06;2079413;28;45115;-74
2022/04/17 03:37:53;;;;;;;26.77;14.18;;;;;;;2.89;68.80;103159.31;2079886;28;44811;-74
2022/04/17 03:38:55;;;;;;;22.48;13.63;;;;;;;3.00;68.57;103155.44;2079508;28;20050;-72
2022/04/17 03:39:57;;;;;;;22.90;13.45;;;;;;;3.01;68.47;103163.41;2070726;28;45601;-71
2022/04/17 03:40:59;;;;;;;23.05;13.55;;;;;;;3.04;68.83;103162.66;2070681;28;32375;-73
2022/04/17 03:42:01;;;;;;;22.23;13.52;;;;;;;3.07;68.55;103162.81;2078574;28;44311;-73
2022/04/17 03:43:04;;;;;;;19.00;12.90;;;;;;;3.06;68.06;103171.56;2079246;28;43850;-72
2022/04/17 03:44:05;;;;;;;19.58;13.13;;;;;;;3.03;68.23;103166.13;2079941;28;20128;-73
2022/04/17 03:45:17;;;;;;;21.88;13.07;;;;;;;3.17;68.60;103172.03;2070822;28;43309;-72
2022/04/17 03:46:18;;;;;;;19.70;13.32;;;;;;;3.11;67.85;103167.38;2071852;28;46101;-72
2022/04/17 03:47:20;;;;;;;23.20;12.90;;;;;;;3.20;68.37;103166.88;2080432;28;35796;-72
2022/04/17 03:48:25;;;;;;;21.63;13.27;;;;;;;3.16;67.86;103170.22;2070435;28;43925;-72
2022/04/17 03:49:27;;;;;;;20.10;12.70;;;;;;;3.25;68.36;103165.34;2071254;28;41107;-72
2022/04/17 03:50:28;;;;;;;20.42;13.70;;;;;;;3.23;68.36;103174.94;2078404;28;45622;-72
2022/04/17 03:51:30;;;;;;;23.98;13.45;;;;;;;3.23;67.64;103174.94;2070399;28;44803;-72
2022/04/17 03:52:43;;;;;;;21.27;12.88;;;;;;;3.16;67.76;103173.78;2078595;28;44161;-72
2022/04/17 03:53:44;;;;;;;23.80;12.48;;;;;;;3.15;68.02;103179.91;2070610;28;46336;-73
2022/04/17 03:54:46;;;;;;;21.73;13.65;;;;;;;3.11;68.38;103169.13;2070934;28;44262;-71
2022/04/17 03:55:48;;;;;;;20.77;13.23;;;;;;;3.14;67.92;103169.25;2078261;28;45476;-72
2022/04/17 03:56:49;;;;;;;21.67;13.35;;;;;;;3.13;68.20;103173.66;2070774;28;44538;-72
2022/04/17 03:57:51;;;;;;;21.27;12.98;;;;;;;3.12;68.10;103177.13;2070990;28;45604;-72
2022/04/17 03:58:53;;;;;;;21.45;13.23;;;;;;;3.18;68.28;103176.50;2078125;28;46253;-71
2022/04/17 03:59:55;;;;;;;18.70;12.80;;;;;;;3.12;68.05;103170.94;2071195;28;42561;-72
2022/04/17 04:00:56;;;;;;;20.15;12.70;;;;;;;3.11;68.70;103177.06;2078765;28;43868;-71
2022/04/17 04:01:58;;;;;;;23.10;13.02;;;;;;;3.04;68.78;103178.53;2080415;28;20818;-73
2022/04/17 04:03:01;;;;;;;23.25;13.13;;;;;;;3.04;68.80;103178.53;2079688;28;43719;-73
2022/04/17 04:04:02;;;;;;;21.35;12.48;;;;;;;3.08;67.96;103179.59;2079284;28;44052;-73
2022/04/17 04:05:05;;;;;;;20.50;12.55;;;;;;;3.01;68.69;103176.63;2079463;28;43425;-73
2022/04/17 04:06:07;;;;;;;19.92;12.90;;;;;;;3.05;68.41;103181.25;2078821;28;32408;-73
2022/04/17 04:07:08;;;;;;;19.90;11.50;;;;;;;2.99;68.47;103180.06;2078732;28;44919;-73
2022/04/17 04:08:10;;;;;;;21.48;12.38;;;;;;;3.00;68.99;103177.50;2079023;28;42075;-73
2022/04/17 04:09:12;;;;;;;18.83;12.45;;;;;;;2.96;69.21;103179.94;2079328;28;20815;-73
2022/04/17 04:10:14;;;;;;;21.10;12.50;;;;;;;2.94;69.04;103168.38;2079025;28;45781;-73
2022/04/17 04:11:17;;;;;;;19.38;12.43;;;;;;;2.91;68.76;103170.88;2078733;28;43615;-73
2022/04/17 04:12:22;;;;;;;19.70;12.93;;;;;;;2.86;68.94;103173.34;2072042;28;20085;-72
2022/04/17 04:13:29;;;;;;;21.65;12.60;;;;;;;2.81;69.62;103165.19;2078530;28;42390;-73
2022/04/17 04:14:30;;;;;;;18.80;12.75;;;;;;;2.77;69.31;103172.94;2079462;28;45843;-73
2022/04/17 04:15:32;;;;;;;22.77;13.15;;;;;;;2.77;69.38;103172.94;2078851;28;43314;-73
2022/04/17 04:16:36;;;;;;;25.48;13.15;;;;;;;2.80;69.42;103163.38;2079152;28;20038;-72
2022/04/17 04:17:38;;;;;;;18.65;12.57;;;;;;;2.71;69.45;103162.97;2078515;28;45158;-72
2022/04/17 04:18:39;;;;;;;19.52;12.18;;;;;;;2.79;69.97;103163.31;2079163;28;41473;-73
2022/04/17 04:19:41;;;;;;;18.63;12.45;;;;;;;2.72;69.84;103163.88;2080175;28;20046;-72
2022/04/17 04:20:43;;;;;;;19.65;12.73;;;;;;;2.66;70.40;103162.75;2078845;28;45733;-72
2022/04/17 04:21:47;;;;;;;19.05;11.88;;;;;;;2.66;70.04;103162.75;2079295;28;45179;-72
2022/04/17 04:22:49;;;;;;;19.88;11.93;;;;;;;2.66;70.64;103167.16;2079319;28;45550;-72
2022/04/17 04:23:51;;;;;;;19.15;12.85;;;;;;;2.64;70.02;103156.50;2079265;28;43642;-72
2022/04/17 04:24:53;;;;;;;22.75;13.05;;;;;;;2.64;70.35;103156.50;2078959;28;45606;-73
2022/04/17 04:25:57;;;;;;;21.50;12.90;;;;;;;2.72;70.81;103161.22;2078778;28;46437;-72
2022/04/17 04:28:38;;;;;;;;;;;;;;;2.77;70.72;103162.34;2079205;28;44093;-72
2022/04/17 04:29:39;;;;;;;20.30;11.40;;;;;;;2.73;70.66;103161.28;2079010;28;44428;-72
2022/04/17 04:30:42;;;;;;;20.00;12.65;;;;;;;2.73;70.19;103163.00;2070192;28;40069;-72
2022/04/17 04:31:43;;;;;;;21.85;13.15;;;;;;;2.78;70.40;103158.84;2070613;28;44386;-72
2022/04/17 04:32:53;;;;;;;20.90;12.05;;;;;;;2.81;70.08;103159.00;2079155;28;43623;-72
2022/04/17 04:33:55;;;;;;;21.40;11.95;;;;;;;2.72;70.17;103158.59;2079145;28;32626;-72
2022/04/17 04:35:00;;;;;;;19.58;11.77;;;;;;;2.70;69.90;103160.25;2078625;28;44221;-71
2022/04/17 04:36:05;;;;;;;20.60;12.70;;;;;;;2.78;70.29;103164.13;2078473;28;43886;-72
2022/04/17 04:37:08;;;;;;;19.75;11.82;;;;;;;2.72;70.28;103150.66;2070768;28;20034;-72
2022/04/17 04:38:09;;;;;;;20.63;11.80;;;;;;;2.77;70.21;103162.34;2062160;28;42122;-72
2022/04/17 04:39:11;;;;;;;17.17;11.60;;;;;;;2.76;70.45;103157.88;2070113;28;45095;-72
2022/04/17 04:40:12;;;;;;;22.38;11.85;;;;;;;2.82;69.79;103150.22;2078508;28;45623;-71
2022/04/17 04:41:14;;;;;;;20.67;12.63;;;;;;;3.00;69.87;103151.03;2078882;28;44042;-72
2022/04/17 04:42:17;;;;;;;19.15;11.52;;;;;;;3.27;69.42;103150.44;2079820;28;20042;-72
2022/04/17 04:43:21;;;;;;;18.45;11.85;;;;;;;3.61;68.01;103159.81;2080216;28;20090;-71
2022/04/17 04:44:23;;;;;;;22.52;12.27;;;;;;;3.92;66.70;103150.44;2079478;28;44422;-73
2022/04/17 04:46:47;;;;;;;18.38;11.52;;;;;;;4.71;64.55;103146.41;2078830;28;42374;-71
2022/04/17 04:47:50;;;;;;;22.48;12.63;;;;;;;4.91;63.52;103142.72;2078964;28;43928;-71
2022/04/17 04:50:14;;;;;;;18.67;11.73;;;;;;;5.44;60.88;103145.47;2079698;28;20077;-71
2022/04/17 04:51:16;;;;;;;19.52;11.52;;;;;;;5.50;60.78;103140.34;2078728;28;45428;-71
2022/04/17 04:52:21;;;;;;;19.52;11.80;;;;;;;5.48;60.71;103143.81;2078593;28;43522;-72
2022/04/17 04:53:23;;;;;;;16.48;11.68;;;;;;;5.43;60.13;103134.78;2079676;28;26537;-72
2022/04/17 04:54:25;;;;;;;20.83;11.63;;;;;;;5.47;59.38;103139.34;2078739;28;45416;-72
2022/04/17 04:55:26;;;;;;;19.55;10.88;;;;;;;5.75;60.48;103130.53;2078255;28;42894;-70
2022/04/17 04:56:30;;;;;;;16.75;11.23;;;;;;;5.94;58.52;103132.03;2079118;28;20800;-71
2022/04/17 04:57:34;;;;;;;18.17;11.30;;;;;;;6.25;58.61;103133.00;2079408;28;43265;-71
2022/04/17 04:58:36;;;;;;;19.13;11.60;;;;;;;6.16;57.38;103138.06;2078739;28;33394;-72
2022/04/17 04:59:38;;;;;;;18.33;11.63;;;;;;;6.49;57.17;103144.34;2070568;28;46016;-71
2022/04/17 05:00:39;;;;;;;19.52;11.70;;;;;;;6.81;56.23;103144.41;2078296;28;45768;-72